Impacts TAF Board
For situational awareness. Not to be used for flight planning purposes.
IDs:

KCVG - Cincinnati Intl, KY, US

Issued at 0535 UTC 16 Oct 2018
Updated at 0831 UTC 16 Oct 2018
Potential Impact None Slight Moderate High
Time0752Z 16/09Z 16/10Z 16/11Z 16/12Z 16/13Z 16/14Z 16/15Z 16/16Z 16/17Z 16/18Z 16/19Z 16/20Z 16/21Z>>
Type OBS PRVL PRVL PRVL PRVL PRVL PRVL PRVL PRVL PRVL PRVL PRVL PRVL PRVL
VIS 10 >6 >6 >6 >6 >6 >6 >6 >6 >6 >6 >6 >6 >6
CIG 250 250 250 250 250 250 -- -- -- -- -- -- -- --
Cover BKN BKN BKN BKN BKN BKN SCT SCT SCT SCT SCT SCT SCT SCT
FltCat VFR VFR VFR VFR VFR VFR VFR VFR VFR VFR VFR VFR VFR VFR
WX -- -- -- -- -- -- -- -- -- -- -- -- -- --
WDir VRB 260 260 260 260 260 240 240 240 240 240 240 240 240
WSpd 0 4 4 4 4 4 8 8 8 8 8 8 8 8
WGst -- -- -- -- -- -- -- -- -- -- -- -- -- --
Raw TAF
KCVG 160535Z 1606/1712 26004KT P6SM BKN250
  FM161400 24008KT P6SM SCT250
  FM170000 25006KT P6SM SCT250


Raw METAR
KCVG 160752Z 00000KT 10SM BKN250 05/03 A3029 RMK AO2 SLP256 T00500033
KCVG 160652Z 31003KT 10SM OVC250 05/04 A3028 RMK AO2 SLP253 T00500039
KCVG 160552Z 31004KT 10SM OVC250 05/03 A3027 RMK AO2 SLP252 T00500033 10083 20044 50000

METAR Board
Radar Display
Forecast Discussion
For situational awareness. Not to be used for flight planning purposes.